createdAt,value
2019-03-01T00:00:32.174Z,41.37
2019-03-01T00:03:05.662Z,41.95
2019-03-01T00:06:02.111Z,41.96
2019-03-01T00:08:51.983Z,42.26
2019-03-01T00:11:34.536Z,42.47
2019-03-01T00:14:41.890Z,42.63
2019-03-01T00:18:21.487Z,42.90
2019-03-01T00:21:03.269Z,43.09
2019-03-01T00:24:15.036Z,43.45
2019-03-01T00:27:04.457Z,43.49
2019-03-01T00:30:03.968Z,44.01
2019-03-01T00:33:10.269Z,43.88
2019-03-01T00:36:37.382Z,44.04
2019-03-01T00:39:45.614Z,43.98
2019-03-01T00:42:45.880Z,44.29
2019-03-01T00:45:17.680Z,44.40
2019-03-01T00:47:49.371Z,44.70
2019-03-01T00:50:21.080Z,44.82
2019-03-01T00:52:52.723Z,45.07
2019-03-01T00:55:24.345Z,44.92
2019-03-01T00:57:56.205Z,45.18
2019-03-01T01:00:39.807Z,45.38
2019-03-01T01:03:11.453Z,45.20
2019-03-01T01:05:43.272Z,45.26
2019-03-01T01:08:15.239Z,45.25
2019-03-01T01:10:46.966Z,45.22
2019-03-01T01:13:18.751Z,45.52
2019-03-01T01:15:50.502Z,45.60
2019-03-01T01:18:22.208Z,45.86
2019-03-01T01:20:53.837Z,46.09
2019-03-01T01:23:26.876Z,45.80
2019-03-01T01:25:58.677Z,45.90
2019-03-01T01:28:30.495Z,46.03
2019-03-01T01:31:02.386Z,45.90
2019-03-01T01:33:34.260Z,46.00
2019-03-01T01:36:06.136Z,45.94
2019-03-01T01:38:37.833Z,46.01
2019-03-01T01:41:09.424Z,46.14
2019-03-01T01:43:41.135Z,46.11
2019-03-01T01:46:12.957Z,46.34
2019-03-01T01:48:44.705Z,46.39
2019-03-01T01:51:16.335Z,46.17
2019-03-01T01:53:48.112Z,46.04
2019-03-01T01:56:19.727Z,46.13
2019-03-01T01:58:51.535Z,45.89
2019-03-01T02:01:23.398Z,45.61
2019-03-01T02:03:55.283Z,45.44
2019-03-01T02:06:27.263Z,45.30
2019-03-01T02:08:59.053Z,44.98
2019-03-01T02:11:30.736Z,44.92
2019-03-01T02:14:02.375Z,44.85
2019-03-01T02:16:34.047Z,44.92
2019-03-01T02:19:05.805Z,45.22
2019-03-01T02:21:38.042Z,45.08
2019-03-01T02:24:09.816Z,45.32
2019-03-01T02:26:41.465Z,45.27
2019-03-01T02:29:13.311Z,45.26
2019-03-01T02:31:50.405Z,45.37
2019-03-01T02:34:22.160Z,45.35
2019-03-01T02:36:53.948Z,45.18
2019-03-01T02:39:25.672Z,45.08
2019-03-01T02:41:57.365Z,45.17
2019-03-01T02:44:28.951Z,45.27
2019-03-01T02:47:00.538Z,45.14
2019-03-01T02:49:32.401Z,45.06
2019-03-01T02:52:04.146Z,45.04
2019-03-01T02:54:36.011Z,45.13
2019-03-01T02:57:07.549Z,45.36
2019-03-01T02:59:39.222Z,45.43
2019-03-01T03:02:10.999Z,45.47
2019-03-01T03:04:42.728Z,45.54
2019-03-01T03:07:19.538Z,45.52
2019-03-01T03:09:51.269Z,45.60
2019-03-01T03:12:23.093Z,45.35
2019-03-01T03:14:54.836Z,45.50
2019-03-01T03:17:26.620Z,45.48
2019-03-01T03:19:58.207Z,45.75
2019-03-01T03:22:29.893Z,45.71
2019-03-01T03:25:01.565Z,45.76
2019-03-01T03:27:33.339Z,45.67
2019-03-01T03:30:06.022Z,45.99
2019-03-01T03:32:38.011Z,46.08
2019-03-01T03:35:09.999Z,46.04
2019-03-01T03:37:41.722Z,46.03
2019-03-01T03:40:13.804Z,46.01
2019-03-01T03:42:45.595Z,46.05
2019-03-01T03:45:17.487Z,46.43
2019-03-01T03:47:49.376Z,46.49
2019-03-01T03:50:21.064Z,46.70
2019-03-01T03:52:52.898Z,46.88
2019-03-01T03:55:24.631Z,47.32
2019-03-01T03:57:56.851Z,47.59
2019-03-01T04:00:28.760Z,47.96
2019-03-01T04:03:01.290Z,48.47
2019-03-01T04:05:33.173Z,48.40
2019-03-01T04:08:04.848Z,48.68
2019-03-01T04:10:36.580Z,48.56
2019-03-01T04:13:08.294Z,48.76
2019-03-01T04:15:39.829Z,48.90
2019-03-01T04:18:11.582Z,49.05
2019-03-01T04:20:43.358Z,49.21
2019-03-01T04:23:15.115Z,49.40
2019-03-01T04:25:46.883Z,49.27
2019-03-01T04:28:18.581Z,49.19
2019-03-01T04:30:50.261Z,49.18
2019-03-01T04:33:22.172Z,49.21
2019-03-01T04:35:53.867Z,49.27
2019-03-01T04:38:25.583Z,49.09
2019-03-01T04:40:57.361Z,49.01
2019-03-01T04:43:29.098Z,49.09
2019-03-01T04:46:02.012Z,49.09
2019-03-01T04:48:33.681Z,49.31
2019-03-01T04:51:05.555Z,49.32
2019-03-01T04:53:37.260Z,49.46
2019-03-01T04:56:10.207Z,49.30
2019-03-01T04:58:42.120Z,49.51
2019-03-01T05:01:15.119Z,49.83
2019-03-01T05:03:52.877Z,49.82
2019-03-01T05:06:24.558Z,49.85
2019-03-01T05:08:56.305Z,49.94
2019-03-01T05:11:27.984Z,50.35
2019-03-01T05:14:00.796Z,50.61
2019-03-01T05:16:32.656Z,50.55
2019-03-01T05:19:04.312Z,50.60
2019-03-01T05:21:36.064Z,50.79
2019-03-01T05:24:07.840Z,50.94
2019-03-01T05:26:39.610Z,50.84
2019-03-01T05:29:11.268Z,51.00
2019-03-01T05:31:42.872Z,50.69
2019-03-01T05:34:14.705Z,50.82
2019-03-01T05:36:46.432Z,50.89
2019-03-01T05:39:18.163Z,50.80
2019-03-01T05:41:49.854Z,50.74
2019-03-01T05:44:21.415Z,50.34
2019-03-01T05:46:53.042Z,49.99
2019-03-01T05:49:24.745Z,50.64
2019-03-01T05:51:56.475Z,50.74
2019-03-01T05:54:28.114Z,51.27
2019-03-01T05:56:59.822Z,50.91
2019-03-01T05:59:34.582Z,50.86
2019-03-01T06:02:55.625Z,51.04
2019-03-01T06:05:31.975Z,51.08
2019-03-01T06:08:34.767Z,51.52
2019-03-01T06:11:22.987Z,51.19
2019-03-01T06:14:35.742Z,52.01
2019-03-01T06:17:37.407Z,51.83
2019-03-01T06:20:49.058Z,51.01
2019-03-01T06:23:54.830Z,51.28
2019-03-01T06:27:10.060Z,51.46
2019-03-01T06:30:23.692Z,51.00
2019-03-01T06:33:13.904Z,50.93
2019-03-01T06:36:03.280Z,50.88
2019-03-01T06:39:25.847Z,50.36
2019-03-01T06:42:32.058Z,51.05
2019-03-01T06:45:32.208Z,50.54
2019-03-01T06:48:04.064Z,50.28
2019-03-01T06:50:55.011Z,50.20
2019-03-01T06:53:27.046Z,49.87
2019-03-01T06:56:03.685Z,50.59
2019-03-01T06:59:04.225Z,50.54
2019-03-01T07:01:41.158Z,49.43
2019-03-01T07:04:16.198Z,49.77
2019-03-01T07:06:47.969Z,50.37
2019-03-01T07:09:19.660Z,50.86
2019-03-01T07:11:51.382Z,51.71
2019-03-01T07:14:23.182Z,50.65
2019-03-01T07:16:54.871Z,50.74
2019-03-01T07:19:26.708Z,49.94
2019-03-01T07:21:58.548Z,49.94
2019-03-01T07:24:30.758Z,49.20
2019-03-01T07:27:02.508Z,49.60
2019-03-01T07:29:34.375Z,48.84
2019-03-01T07:32:06.070Z,48.54
2019-03-01T07:34:37.905Z,47.63
2019-03-01T07:37:09.687Z,47.63
2019-03-01T07:39:41.391Z,47.12
2019-03-01T07:42:13.060Z,46.80
2019-03-01T07:44:44.767Z,47.07
2019-03-01T07:47:17.412Z,46.27
2019-03-01T07:49:49.120Z,46.10
2019-03-01T07:52:20.820Z,45.77
2019-03-01T07:54:53.679Z,45.21
2019-03-01T07:57:25.522Z,45.03
2019-03-01T07:59:58.482Z,43.27
2019-03-01T08:02:30.202Z,43.40
2019-03-01T08:05:04.222Z,43.25
2019-03-01T08:07:36.511Z,42.71
2019-03-01T08:10:10.232Z,43.94
2019-03-01T08:12:42.343Z,44.35
2019-03-01T08:15:15.879Z,42.89
2019-03-01T08:17:47.809Z,41.43
2019-03-01T08:20:19.497Z,40.67
2019-03-01T08:22:51.311Z,42.08
2019-03-01T08:25:24.536Z,41.32
2019-03-01T08:27:56.588Z,41.09
2019-03-01T08:30:29.368Z,41.20
2019-03-01T08:33:02.738Z,40.97
2019-03-01T08:35:34.509Z,41.84
2019-03-01T08:38:06.198Z,40.80
2019-03-01T08:40:37.796Z,40.91
2019-03-01T08:43:12.955Z,40.69
2019-03-01T08:45:42.927Z,38.89
2019-03-01T08:48:14.591Z,39.42
2019-03-01T08:50:46.790Z,39.44
2019-03-01T08:53:18.521Z,38.35
2019-03-01T08:55:52.127Z,39.15
2019-03-01T08:58:23.796Z,39.04
2019-03-01T09:00:59.603Z,39.09
2019-03-01T09:03:32.899Z,38.93
2019-03-01T09:06:04.726Z,38.45
2019-03-01T09:08:36.471Z,38.24
2019-03-01T09:11:09.354Z,37.52
2019-03-01T09:13:41.730Z,36.59
2019-03-01T09:16:13.439Z,37.58
2019-03-01T09:18:46.587Z,37.14
2019-03-01T09:21:18.530Z,36.34
2019-03-01T09:23:52.086Z,36.68
2019-03-01T09:26:24.024Z,36.35
2019-03-01T09:28:55.876Z,36.25
2019-03-01T09:31:28.661Z,36.56
2019-03-01T09:34:00.339Z,36.05
2019-03-01T09:36:38.913Z,35.61
2019-03-01T09:39:14.510Z,35.25
2019-03-01T09:41:44.777Z,35.15
2019-03-01T09:44:16.726Z,35.03
2019-03-01T09:46:48.751Z,34.49
2019-03-01T09:49:21.434Z,35.28
2019-03-01T09:51:53.609Z,34.80
2019-03-01T09:54:25.377Z,34.75
2019-03-01T09:56:57.232Z,34.99
2019-03-01T09:59:28.914Z,33.80
2019-03-01T10:02:00.810Z,33.22
2019-03-01T10:04:32.564Z,33.32
2019-03-01T10:07:04.536Z,33.05
2019-03-01T10:09:36.242Z,32.92
2019-03-01T10:12:07.983Z,33.20
2019-03-01T10:14:39.742Z,32.75
2019-03-01T10:17:11.503Z,33.06
2019-03-01T10:19:43.243Z,30.98
2019-03-01T10:22:15.079Z,31.46
2019-03-01T10:24:46.925Z,32.52
2019-03-01T10:27:18.586Z,32.81
2019-03-01T10:29:50.355Z,32.31
2019-03-01T10:32:21.888Z,32.04
2019-03-01T10:34:53.617Z,31.89
2019-03-01T10:37:25.486Z,30.90
2019-03-01T10:39:57.051Z,30.48
2019-03-01T10:42:29.924Z,31.13
2019-03-01T10:45:01.696Z,30.85
2019-03-01T10:47:34.144Z,31.05
2019-03-01T10:50:06.519Z,31.38
2019-03-01T10:52:38.228Z,30.90
2019-03-01T10:55:13.275Z,30.45
2019-03-01T10:57:45.137Z,30.72
2019-03-01T11:00:21.332Z,30.74
2019-03-01T11:02:53.286Z,30.55
2019-03-01T11:05:25.341Z,29.58
2019-03-01T11:07:57.188Z,29.71
2019-03-01T11:10:31.006Z,29.40
2019-03-01T11:13:02.574Z,28.70
2019-03-01T11:15:35.424Z,29.29
2019-03-01T11:18:07.195Z,29.93
2019-03-01T11:20:38.990Z,29.03
2019-03-01T11:23:10.797Z,28.42
2019-03-01T11:25:43.620Z,28.70
2019-03-01T11:28:15.429Z,28.09
2019-03-01T11:30:48.395Z,28.26
2019-03-01T11:33:20.191Z,28.48
2019-03-01T11:35:51.902Z,27.73
2019-03-01T11:38:23.551Z,28.57
2019-03-01T11:40:56.446Z,28.87
2019-03-01T11:43:28.145Z,28.36
2019-03-01T11:46:00.658Z,28.63
2019-03-01T11:48:32.826Z,28.08
2019-03-01T11:51:04.525Z,28.07
2019-03-01T11:53:36.361Z,28.24
2019-03-01T11:56:08.242Z,28.54
2019-03-01T11:58:40.115Z,28.59
2019-03-01T12:01:17.243Z,28.18
2019-03-01T12:03:46.216Z,29.21
2019-03-01T12:06:17.888Z,30.07
2019-03-01T12:08:50.898Z,30.39
2019-03-01T12:11:22.689Z,29.95
2019-03-01T12:13:54.445Z,30.31
2019-03-01T12:16:26.316Z,31.07
2019-03-01T12:18:58.243Z,29.67
2019-03-01T12:21:29.862Z,30.47
2019-03-01T12:24:01.546Z,34.42
2019-03-01T12:26:33.222Z,36.12
2019-03-01T12:29:04.789Z,37.84
2019-03-01T12:31:36.531Z,38.99
2019-03-01T12:34:08.389Z,40.28
2019-03-01T12:36:40.267Z,41.16
2019-03-01T12:39:12.006Z,41.90
2019-03-01T12:41:43.922Z,42.88
2019-03-01T12:44:16.776Z,44.26
2019-03-01T12:46:48.446Z,44.96
2019-03-01T12:49:19.966Z,46.31
2019-03-01T12:51:54.506Z,47.92
2019-03-01T12:54:26.365Z,47.83
2019-03-01T12:56:58.177Z,47.14
2019-03-01T12:59:29.751Z,47.47
2019-03-01T13:02:01.491Z,47.82
2019-03-01T13:04:33.061Z,48.39
2019-03-01T13:07:04.953Z,48.29
2019-03-01T13:09:36.685Z,49.96
2019-03-01T13:12:08.355Z,50.42
2019-03-01T13:14:40.335Z,49.04
2019-03-01T13:17:12.085Z,50.19
2019-03-01T13:19:43.953Z,50.74
2019-03-01T13:22:15.864Z,51.25
2019-03-01T13:24:50.355Z,51.74
2019-03-01T13:27:20.885Z,51.74
2019-03-01T13:29:55.218Z,52.21
2019-03-01T13:32:26.074Z,54.96
2019-03-01T13:34:57.734Z,54.96
2019-03-01T13:37:29.461Z,54.66
2019-03-01T13:40:01.280Z,54.09
2019-03-01T13:42:33.030Z,56.38
2019-03-01T13:45:05.139Z,54.34
2019-03-01T13:47:36.844Z,55.50
2019-03-01T13:50:09.123Z,55.00
2019-03-01T13:52:40.913Z,56.53
2019-03-01T13:55:14.749Z,56.53
2019-03-01T13:57:50.056Z,57.23
2019-03-01T14:00:20.255Z,57.23
2019-03-01T14:02:53.324Z,57.26
2019-03-01T14:05:26.771Z,57.33
2019-03-01T14:08:05.955Z,57.84
2019-03-01T14:10:32.064Z,57.63
2019-03-01T14:13:03.719Z,55.10
2019-03-01T14:15:38.522Z,55.10
2019-03-01T14:18:08.814Z,56.74
2019-03-01T14:20:40.624Z,56.76
2019-03-01T14:23:12.373Z,57.99
2019-03-01T14:25:44.763Z,58.38
2019-03-01T14:28:16.494Z,60.54
2019-03-01T14:30:48.205Z,60.54
2019-03-01T14:33:19.809Z,60.73
2019-03-01T14:35:51.453Z,61.80
2019-03-01T14:38:23.169Z,61.02
2019-03-01T14:40:56.068Z,61.02
2019-03-01T14:43:28.316Z,59.97
2019-03-01T14:45:59.889Z,59.84
2019-03-01T14:48:31.568Z,59.84
2019-03-01T14:51:03.226Z,60.62
2019-03-01T14:53:35.933Z,60.04
2019-03-01T14:56:21.558Z,60.89
2019-03-01T14:58:58.794Z,60.89
2019-03-01T15:01:46.706Z,60.92
2019-03-01T15:04:18.456Z,62.32
2019-03-01T15:06:51.489Z,62.79
2019-03-01T15:09:23.597Z,62.83
2019-03-01T15:11:55.344Z,62.90
2019-03-01T15:14:27.246Z,63.21
2019-03-01T15:16:58.916Z,62.99
2019-03-01T15:19:30.596Z,63.49
2019-03-01T15:22:03.930Z,65.05
2019-03-01T15:24:36.320Z,65.28
2019-03-01T15:27:08.829Z,65.71
2019-03-01T15:29:40.592Z,66.31
2019-03-01T15:32:12.582Z,66.79
2019-03-01T15:34:44.507Z,66.84
2019-03-01T15:37:16.228Z,67.21
2019-03-01T15:39:47.994Z,66.14
2019-03-01T15:42:21.140Z,65.76
2019-03-01T15:44:53.198Z,66.02
2019-03-01T15:47:26.645Z,66.69
2019-03-01T15:49:58.475Z,67.49
2019-03-01T15:52:30.298Z,67.61
2019-03-01T15:55:02.010Z,67.70
2019-03-01T15:57:34.277Z,68.13
2019-03-01T16:00:06.405Z,68.19
2019-03-01T16:02:40.152Z,68.04
2019-03-01T16:05:12.497Z,68.04
2019-03-01T16:07:44.497Z,68.31
2019-03-01T16:10:16.239Z,68.33
2019-03-01T16:12:48.018Z,68.81
2019-03-01T16:15:21.014Z,69.45
2019-03-01T16:17:52.806Z,70.72
2019-03-01T16:20:25.163Z,71.13
2019-03-01T16:22:57.877Z,70.86
2019-03-01T16:25:29.497Z,71.49
2019-03-01T16:28:02.377Z,72.51
2019-03-01T16:30:33.933Z,73.40
2019-03-01T16:33:05.855Z,73.42
2019-03-01T16:35:37.636Z,74.06
2019-03-01T16:38:09.587Z,74.89
2019-03-01T16:40:41.306Z,74.89
2019-03-01T16:43:13.116Z,75.25
2019-03-01T16:45:45.221Z,75.41
2019-03-01T16:48:17.766Z,76.20
2019-03-01T16:50:49.588Z,77.16
2019-03-01T16:53:21.277Z,77.20
2019-03-01T16:55:53.055Z,76.95
2019-03-01T16:58:28.281Z,77.17
2019-03-01T17:00:58.116Z,75.73
2019-03-01T17:03:30.910Z,76.04
2019-03-01T17:06:02.590Z,75.77
2019-03-01T17:08:36.344Z,74.10
2019-03-01T17:11:07.805Z,73.15
2019-03-01T17:13:39.631Z,72.48
2019-03-01T17:16:11.275Z,72.54
2019-03-01T17:18:44.631Z,72.75
2019-03-01T17:21:16.629Z,73.62
2019-03-01T17:23:48.538Z,72.82
2019-03-01T17:26:20.378Z,73.00
2019-03-01T17:28:52.030Z,75.00
2019-03-01T17:31:26.947Z,77.31
2019-03-01T17:33:57.102Z,78.99
2019-03-01T17:36:28.737Z,81.07
2019-03-01T17:39:00.402Z,82.88
2019-03-01T17:41:33.569Z,84.49
2019-03-01T17:44:08.654Z,85.62
2019-03-01T17:46:38.931Z,87.13
2019-03-01T17:49:11.998Z,87.41
2019-03-01T17:51:43.731Z,87.78
2019-03-01T17:54:15.444Z,88.03
2019-03-01T17:56:47.348Z,89.06
2019-03-01T17:59:18.910Z,89.43
2019-03-01T18:01:50.596Z,89.04
2019-03-01T18:04:22.249Z,89.32
2019-03-01T18:06:53.969Z,89.78
2019-03-01T18:09:26.955Z,90.07
2019-03-01T18:11:58.773Z,90.84
2019-03-01T18:14:33.786Z,91.77
2019-03-01T18:17:03.822Z,92.31
2019-03-01T18:19:35.533Z,91.01
2019-03-01T18:22:07.285Z,90.92
2019-03-01T18:24:38.995Z,89.93
2019-03-01T18:27:12.276Z,88.16
2019-03-01T18:29:43.966Z,87.08
2019-03-01T18:32:17.222Z,85.83
2019-03-01T18:34:49.186Z,85.23
2019-03-01T18:37:20.867Z,84.83
2019-03-01T18:39:52.955Z,83.90
2019-03-01T18:42:24.745Z,85.11
2019-03-01T18:44:56.398Z,85.15
2019-03-01T18:47:30.674Z,85.63
2019-03-01T18:50:01.200Z,87.88
2019-03-01T18:52:32.835Z,88.20
2019-03-01T18:55:04.554Z,88.64
2019-03-01T18:57:38.584Z,88.08
2019-03-01T19:00:21.723Z,89.49
2019-03-01T19:02:53.687Z,90.44
2019-03-01T19:05:27.331Z,91.16
2019-03-01T19:08:00.893Z,91.10
2019-03-01T19:10:32.522Z,92.35
2019-03-01T19:13:04.322Z,92.11
2019-03-01T19:15:36.182Z,90.22
2019-03-01T19:18:08.016Z,89.33
2019-03-01T19:20:41.545Z,88.98
2019-03-01T19:23:13.592Z,88.15
2019-03-01T19:25:46.640Z,88.69
2019-03-01T19:28:18.192Z,87.25
2019-03-01T19:30:50.523Z,87.51
2019-03-01T19:33:22.538Z,87.54
2019-03-01T19:35:54.222Z,86.76
2019-03-01T19:38:36.861Z,85.17
2019-03-01T19:41:08.697Z,84.68
2019-03-01T19:43:41.695Z,83.75
2019-03-01T19:46:15.695Z,83.51
2019-03-01T19:48:47.724Z,83.08
2019-03-01T19:51:19.414Z,81.38
2019-03-01T19:53:51.322Z,79.50
2019-03-01T19:56:25.866Z,78.24
2019-03-01T19:58:56.464Z,77.90
2019-03-01T20:01:29.236Z,77.02
2019-03-01T20:04:00.887Z,75.73
2019-03-01T20:06:33.826Z,74.98
2019-03-01T20:09:08.476Z,74.78
2019-03-01T20:11:40.573Z,74.53
2019-03-01T20:14:12.276Z,74.65
2019-03-01T20:16:44.105Z,74.44
2019-03-01T20:19:17.037Z,74.24
2019-03-01T20:21:49.238Z,74.18
2019-03-01T20:24:20.925Z,73.88
2019-03-01T20:26:52.565Z,74.06
2019-03-01T20:29:24.297Z,73.68
2019-03-01T20:31:55.896Z,73.66
2019-03-01T20:34:27.647Z,73.52
2019-03-01T20:36:59.400Z,73.18
2019-03-01T20:39:33.185Z,73.11
2019-03-01T20:42:04.563Z,73.18
2019-03-01T20:44:36.342Z,73.09
2019-03-01T20:47:08.017Z,73.23
2019-03-01T20:49:40.457Z,73.10
2019-03-01T20:52:12.362Z,73.19
2019-03-01T20:54:44.224Z,73.22
2019-03-01T20:57:15.862Z,73.76
2019-03-01T20:59:50.548Z,73.39
2019-03-01T21:02:20.942Z,73.12
2019-03-01T21:04:53.652Z,73.00
2019-03-01T21:07:25.874Z,72.91
2019-03-01T21:09:57.454Z,72.68
2019-03-01T21:12:29.133Z,73.08
2019-03-01T21:15:01.905Z,73.10
2019-03-01T21:17:35.434Z,73.42
2019-03-01T21:20:08.394Z,74.08
2019-03-01T21:22:41.009Z,74.19
2019-03-01T21:25:14.624Z,74.46
2019-03-01T21:27:47.517Z,74.61
2019-03-01T21:30:24.023Z,74.42
2019-03-01T21:32:55.474Z,74.53
2019-03-01T21:35:27.148Z,74.23
2019-03-01T21:37:59.316Z,74.24
2019-03-01T21:40:31.475Z,74.46
2019-03-01T21:43:04.393Z,74.77
2019-03-01T21:45:36.205Z,74.69
2019-03-01T21:48:07.873Z,74.62
2019-03-01T21:50:42.431Z,74.67
2019-03-01T21:53:12.913Z,74.96
2019-03-01T21:55:44.558Z,75.32
2019-03-01T21:58:16.291Z,75.65
2019-03-01T22:00:47.921Z,75.56
2019-03-01T22:03:19.541Z,75.66
2019-03-01T22:05:51.273Z,76.24
2019-03-01T22:08:23.024Z,76.26
2019-03-01T22:10:54.801Z,76.70
2019-03-01T22:13:26.432Z,77.08
2019-03-01T22:16:00.998Z,77.05
2019-03-01T22:18:31.589Z,77.17
2019-03-01T22:21:04.431Z,77.50
2019-03-01T22:23:36.078Z,77.91
2019-03-01T22:26:09.725Z,78.03
2019-03-01T22:28:41.199Z,78.69
2019-03-01T22:31:12.836Z,79.03
2019-03-01T22:33:44.507Z,79.38
2019-03-01T22:36:18.192Z,79.87
2019-03-01T22:38:49.480Z,79.98
2019-03-01T22:41:21.288Z,80.35
2019-03-01T22:43:53.194Z,80.57
2019-03-01T22:46:25.916Z,81.04
2019-03-01T22:48:57.673Z,80.87
2019-03-01T22:51:29.341Z,81.44
2019-03-01T22:54:02.252Z,81.56
2019-03-01T22:56:33.803Z,81.42
2019-03-01T22:59:08.642Z,81.27
2019-03-01T23:01:49.103Z,81.63
2019-03-01T23:04:20.826Z,81.65
2019-03-01T23:06:52.856Z,81.81
2019-03-01T23:09:25.911Z,81.87
2019-03-01T23:11:59.151Z,81.90
2019-03-01T23:14:31.892Z,81.74
2019-03-01T23:17:03.822Z,81.79
2019-03-01T23:19:35.373Z,81.77
2019-03-01T23:22:10.928Z,81.61
2019-03-01T23:24:41.874Z,81.61
2019-03-01T23:27:13.631Z,81.72
2019-03-01T23:29:45.300Z,81.62
2019-03-01T23:32:16.958Z,81.11
2019-03-01T23:34:48.595Z,80.66
2019-03-01T23:37:20.305Z,80.09
2019-03-01T23:39:51.939Z,80.09
2019-03-01T23:42:23.571Z,80.06
2019-03-01T23:44:55.201Z,80.19
2019-03-01T23:47:26.807Z,80.17
2019-03-01T23:49:59.290Z,80.32
2019-03-01T23:52:31.800Z,80.10
2019-03-01T23:55:03.398Z,79.79
2019-03-01T23:57:37.992Z,80.09
